Fink, Texas
Current Conditions -  °F | °C
As of 12:15 AM on Thursday 29 Jan 2015 (Local Time) from KGYI Reporting Station
Clear Clear  
Wind Chill: 59°   Ceiling: Unl
Heat Index: 59°   Visibility: 10mi
Dew Point: 46°   Wind: 5mph
Humidity: 62%   Direction: 250°WSW
Pressure: 30.07"   Gusts: NA
Location:  33.7873°N, 96.7018°W
Report Text: KGYI 290615Z AUTO 25004KT 10SM CLR 15/08 A3007 RMK AO2 T01480075
Loading
Personal Weather Stations






























Interactive Weather Map New forecast layout! Learn more

10-Day Weather Forecast

Advertisements
Track Severe Weather on mobile